sensor_id;sensor_type;location;lat;lon;timestamp;temperature;humidity
45311;SHT31;68264;51.540;5.854;2023-06-26T00:04:01;22.5;70.9
45311;SHT31;68264;51.540;5.854;2023-06-26T00:18:29;22.3;72.3
45311;SHT31;68264;51.540;5.854;2023-06-26T00:32:48;22.2;72.0
45311;SHT31;68264;51.540;5.854;2023-06-26T00:46:47;22.2;71.5
45311;SHT31;68264;51.540;5.854;2023-06-26T01:00:46;22.5;70.0
45311;SHT31;68264;51.540;5.854;2023-06-26T01:14:45;22.3;70.5
45311;SHT31;68264;51.540;5.854;2023-06-26T01:28:44;22.1;71.6
45311;SHT31;68264;51.540;5.854;2023-06-26T01:42:43;21.7;72.9
45311;SHT31;68264;51.540;5.854;2023-06-26T01:56:42;21.5;71.9
45311;SHT31;68264;51.540;5.854;2023-06-26T02:10:41;21.5;70.1
45311;SHT31;68264;51.540;5.854;2023-06-26T02:24:40;21.3;69.6
45311;SHT31;68264;51.540;5.854;2023-06-26T02:38:40;21.0;70.6
45311;SHT31;68264;51.540;5.854;2023-06-26T02:53:08;20.7;72.1
45311;SHT31;68264;51.540;5.854;2023-06-26T03:07:27;20.4;73.0
45311;SHT31;68264;51.540;5.854;2023-06-26T03:21:55;20.3;73.4
45311;SHT31;68264;51.540;5.854;2023-06-26T03:36:14;20.2;73.3
45311;SHT31;68264;51.540;5.854;2023-06-26T03:50:13;20.0;73.3
45311;SHT31;68264;51.540;5.854;2023-06-26T04:04:12;19.9;73.6
45311;SHT31;68264;51.540;5.854;2023-06-26T04:18:12;19.8;75.7
45311;SHT31;68264;51.540;5.854;2023-06-26T04:32:11;19.7;77.2
45311;SHT31;68264;51.540;5.854;2023-06-26T04:46:10;19.5;78.1
45311;SHT31;68264;51.540;5.854;2023-06-26T05:00:09;19.6;78.8
45311;SHT31;68264;51.540;5.854;2023-06-26T05:14:37;19.7;79.9
45311;SHT31;68264;51.540;5.854;2023-06-26T05:29:57;19.9;80.1
45311;SHT31;68264;51.540;5.854;2023-06-26T05:45:58;20.0;79.8
45311;SHT31;68264;51.540;5.854;2023-06-26T06:01:27;19.8;78.8
45311;SHT31;68264;51.540;5.854;2023-06-26T06:15:46;20.0;79.9
45311;SHT31;68264;51.540;5.854;2023-06-26T06:29:45;20.1;78.2
45311;SHT31;68264;51.540;5.854;2023-06-26T06:44:13;20.5;77.0
45311;SHT31;68264;51.540;5.854;2023-06-26T06:58:32;20.7;76.7
45311;SHT31;68264;51.540;5.854;2023-06-26T07:13:33;20.8;74.1
45311;SHT31;68264;51.540;5.854;2023-06-26T07:28:32;20.9;72.3
45311;SHT31;68264;51.540;5.854;2023-06-26T07:42:31;21.1;72.1
45311;SHT31;68264;51.540;5.854;2023-06-26T07:56:59;21.3;71.7
45311;SHT31;68264;51.540;5.854;2023-06-26T08:11:18;21.2;72.2
45311;SHT31;68264;51.540;5.854;2023-06-26T08:25:47;22.0;70.6
45311;SHT31;68264;51.540;5.854;2023-06-26T08:40:06;21.4;71.0
45311;SHT31;68264;51.540;5.854;2023-06-26T08:54:05;21.6;67.1
45311;SHT31;68264;51.540;5.854;2023-06-26T09:08:33;21.7;61.3
45311;SHT31;68264;51.540;5.854;2023-06-26T09:22:52;22.3;62.3
45311;SHT31;68264;51.540;5.854;2023-06-26T09:36:51;21.4;59.9
45311;SHT31;68264;51.540;5.854;2023-06-26T09:50:50;22.4;59.2
45311;SHT31;68264;51.540;5.854;2023-06-26T10:04:49;21.7;57.8
45311;SHT31;68264;51.540;5.854;2023-06-26T10:18:48;22.2;53.5
45311;SHT31;68264;51.540;5.854;2023-06-26T10:33:49;22.5;57.4
45311;SHT31;68264;51.540;5.854;2023-06-26T10:48:48;22.0;53.5
45311;SHT31;68264;51.540;5.854;2023-06-26T11:02:47;22.0;56.4
45311;SHT31;68264;51.540;5.854;2023-06-26T11:17:16;22.7;54.8
45311;SHT31;68264;51.540;5.854;2023-06-26T11:31:35;21.7;58.0
45311;SHT31;68264;51.540;5.854;2023-06-26T11:45:34;22.3;52.1
45311;SHT31;68264;51.540;5.854;2023-06-26T12:01:06;22.5;50.7
45311;SHT31;68264;51.540;5.854;2023-06-26T12:16:36;21.9;50.5
45311;SHT31;68264;51.540;5.854;2023-06-26T12:30:35;21.5;51.6
45311;SHT31;68264;51.540;5.854;2023-06-26T12:45:03;21.6;53.6
45311;SHT31;68264;51.540;5.854;2023-06-26T12:59:51;22.9;53.4
45311;SHT31;68264;51.540;5.854;2023-06-26T13:14:11;23.0;52.5
45311;SHT31;68264;51.540;5.854;2023-06-26T13:28:39;22.4;49.4
45311;SHT31;68264;51.540;5.854;2023-06-26T13:42:58;22.5;47.8
45311;SHT31;68264;51.540;5.854;2023-06-26T13:57:58;22.7;47.6
45311;SHT31;68264;51.540;5.854;2023-06-26T14:13:27;22.9;46.8
45311;SHT31;68264;51.540;5.854;2023-06-26T14:27:46;22.2;47.2
45311;SHT31;68264;51.540;5.854;2023-06-26T14:41:45;22.1;49.5
45311;SHT31;68264;51.540;5.854;2023-06-26T14:55:45;22.5;46.3
45311;SHT31;68264;51.540;5.854;2023-06-26T15:09:44;21.9;46.1
45311;SHT31;68264;51.540;5.854;2023-06-26T15:24:12;21.6;46.2
45311;SHT31;68264;51.540;5.854;2023-06-26T15:38:31;21.1;48.0
45311;SHT31;68264;51.540;5.854;2023-06-26T15:52:30;21.0;48.8
45311;SHT31;68264;51.540;5.854;2023-06-26T16:08:02;21.2;47.8
45311;SHT31;68264;51.540;5.854;2023-06-26T16:23:32;21.4;53.3
45311;SHT31;68264;51.540;5.854;2023-06-26T16:37:31;22.1;48.8
45311;SHT31;68264;51.540;5.854;2023-06-26T16:51:30;21.3;49.5
45311;SHT31;68264;51.540;5.854;2023-06-26T17:05:29;21.2;53.2
45311;SHT31;68264;51.540;5.854;2023-06-26T17:19:28;20.9;56.5
45311;SHT31;68264;51.540;5.854;2023-06-26T17:34:28;21.0;55.1
45311;SHT31;68264;51.540;5.854;2023-06-26T17:51:33;21.4;52.9
45311;SHT31;68264;51.540;5.854;2023-06-26T18:07:33;21.6;50.6
45311;SHT31;68264;51.540;5.854;2023-06-26T18:21:32;20.8;53.3
45311;SHT31;68264;51.540;5.854;2023-06-26T18:35:31;20.5;53.9
45311;SHT31;68264;51.540;5.854;2023-06-26T18:49:31;20.3;54.6
45311;SHT31;68264;51.540;5.854;2023-06-26T19:03:30;19.8;58.2
45311;SHT31;68264;51.540;5.854;2023-06-26T19:19:34;19.2;60.6
45311;SHT31;68264;51.540;5.854;2023-06-26T19:36:03;19.1;62.6
45311;SHT31;68264;51.540;5.854;2023-06-26T19:50:51;19.1;63.2
45311;SHT31;68264;51.540;5.854;2023-06-26T20:06:12;18.8;64.3
45311;SHT31;68264;51.540;5.854;2023-06-26T20:22:45;18.3;66.2
45311;SHT31;68264;51.540;5.854;2023-06-26T20:38:14;17.4;68.9
45311;SHT31;68264;51.540;5.854;2023-06-26T20:52:14;16.7;70.8
45311;SHT31;68264;51.540;5.854;2023-06-26T21:06:13;16.2;72.8
45311;SHT31;68264;51.540;5.854;2023-06-26T21:20:12;15.8;74.0
45311;SHT31;68264;51.540;5.854;2023-06-26T21:34:11;15.5;76.1
45311;SHT31;68264;51.540;5.854;2023-06-26T21:48:10;15.3;76.0
45311;SHT31;68264;51.540;5.854;2023-06-26T22:02:09;15.0;77.4
45311;SHT31;68264;51.540;5.854;2023-06-26T22:16:08;14.8;78.2
45311;SHT31;68264;51.540;5.854;2023-06-26T22:30:07;14.7;79.5
45311;SHT31;68264;51.540;5.854;2023-06-26T22:44:06;14.5;79.7
45311;SHT31;68264;51.540;5.854;2023-06-26T22:58:05;14.1;81.4
45311;SHT31;68264;51.540;5.854;2023-06-26T23:13:05;14.0;82.0
45311;SHT31;68264;51.540;5.854;2023-06-26T23:28:34;13.8;82.8
45311;SHT31;68264;51.540;5.854;2023-06-26T23:42:53;13.9;82.8
45311;SHT31;68264;51.540;5.854;2023-06-26T23:56:52;14.2;81.5
